createdAt,value
2018-08-09T00:04:36.450Z,11.17
2018-08-09T00:09:39.654Z,15.30
2018-08-09T00:14:42.862Z,13.38
2018-08-09T00:19:46.069Z,11.33
2018-08-09T00:24:49.382Z,12.43
2018-08-09T00:29:52.590Z,11.23
2018-08-09T00:34:55.795Z,12.93
2018-08-09T00:39:58.998Z,13.18
2018-08-09T00:45:02.214Z,14.40
2018-08-09T00:50:05.702Z,15.40
2018-08-09T00:55:09.756Z,15.23
2018-08-09T01:00:12.978Z,15.38
2018-08-09T01:05:16.195Z,14.20
2018-08-09T01:10:19.413Z,14.80
2018-08-09T01:15:22.622Z,14.13
2018-08-09T01:20:25.832Z,13.38
2018-08-09T01:25:29.039Z,14.25
2018-08-09T01:30:32.254Z,13.95
2018-08-09T01:35:35.478Z,15.13
2018-08-09T01:40:38.759Z,15.10
2018-08-09T01:45:41.949Z,15.65
2018-08-09T01:50:45.125Z,15.05
2018-08-09T01:55:48.347Z,14.53
2018-08-09T02:00:51.575Z,14.70
2018-08-09T02:05:54.787Z,14.70
2018-08-09T02:10:58.013Z,14.67
2018-08-09T02:16:01.219Z,14.90
2018-08-09T02:21:04.429Z,14.53
2018-08-09T02:26:07.626Z,15.38
2018-08-09T02:31:10.818Z,15.30
2018-08-09T02:36:14.030Z,16.35
2018-08-09T02:41:17.225Z,19.47
2018-08-09T02:46:20.489Z,17.85
2018-08-09T02:51:23.686Z,20.33
2018-08-09T02:56:26.953Z,17.90
2018-08-09T03:01:30.134Z,20.03
2018-08-09T03:06:33.347Z,20.77
2018-08-09T03:11:36.573Z,20.43
2018-08-09T03:16:39.826Z,18.30
2018-08-09T03:21:43.034Z,19.37
2018-08-09T03:26:46.258Z,19.05
2018-08-09T03:31:49.547Z,18.87
2018-08-09T03:36:52.783Z,18.92
2018-08-09T03:41:55.986Z,20.43
2018-08-09T03:46:59.198Z,17.05
2018-08-09T03:52:02.467Z,18.37
2018-08-09T03:57:05.793Z,18.40
2018-08-09T04:02:08.995Z,16.70
2018-08-09T04:07:12.235Z,17.77
2018-08-09T04:12:15.429Z,20.30
2018-08-09T04:17:20.691Z,20.10
2018-08-09T04:22:23.879Z,23.90
2018-08-09T04:27:27.116Z,24.60
2018-08-09T04:32:30.299Z,20.07
2018-08-09T04:37:33.510Z,21.35
2018-08-09T04:42:37.585Z,20.88
2018-08-09T04:47:40.807Z,19.07
2018-08-09T04:52:44.053Z,17.35
2018-08-09T04:57:47.275Z,17.98
2018-08-09T05:02:50.519Z,19.73
2018-08-09T05:07:53.737Z,19.32
2018-08-09T05:12:56.974Z,19.57
2018-08-09T05:18:00.199Z,17.37
2018-08-09T05:23:03.737Z,19.12
2018-08-09T05:28:07.393Z,21.02
2018-08-09T05:33:10.613Z,16.82
2018-08-09T05:38:13.854Z,18.55
2018-08-09T05:43:17.140Z,23.02
2018-08-09T05:48:20.339Z,18.43
2018-08-09T05:53:23.559Z,19.07
2018-08-09T05:58:26.807Z,19.45
2018-08-09T06:03:30.046Z,18.07
2018-08-09T06:08:33.281Z,16.17
2018-08-09T06:13:36.487Z,14.00
2018-08-09T06:18:39.705Z,14.17
2018-08-09T06:23:42.903Z,14.60
2018-08-09T06:28:46.127Z,13.93
2018-08-09T06:33:49.329Z,13.27
2018-08-09T06:38:52.526Z,15.25
2018-08-09T06:43:55.924Z,14.07
2018-08-09T06:48:59.167Z,15.97
2018-08-09T06:54:02.374Z,16.33
2018-08-09T06:59:05.595Z,13.83
2018-08-09T07:04:08.793Z,11.88
2018-08-09T07:09:12.120Z,13.58
2018-08-09T07:14:15.371Z,15.43
2018-08-09T07:19:18.599Z,14.00
2018-08-09T07:24:21.991Z,17.00
2018-08-09T07:29:25.199Z,14.85
2018-08-09T07:34:28.430Z,14.07
2018-08-09T07:39:31.691Z,13.70
2018-08-09T07:44:34.862Z,13.90
2018-08-09T07:49:38.099Z,11.48
2018-08-09T07:54:41.308Z,12.40
2018-08-09T07:59:44.507Z,14.40
2018-08-09T08:04:47.715Z,8.80
2018-08-09T08:09:50.885Z,9.43
2018-08-09T08:14:54.094Z,6.50
2018-08-09T08:19:57.280Z,8.07
2018-08-09T08:25:00.506Z,8.03
2018-08-09T08:30:05.274Z,8.17
2018-08-09T08:35:08.519Z,9.65
2018-08-09T08:40:11.749Z,7.15
2018-08-09T08:45:14.987Z,8.65
2018-08-09T08:50:18.218Z,7.70
2018-08-09T08:55:21.455Z,7.65
2018-08-09T09:00:24.674Z,9.08
2018-08-09T09:05:27.921Z,6.92
2018-08-09T09:10:31.121Z,7.35
2018-08-09T09:15:34.487Z,7.60
2018-08-09T09:20:37.684Z,6.25
2018-08-09T09:25:40.891Z,8.88
2018-08-09T09:30:44.131Z,9.33
2018-08-09T09:35:47.360Z,9.27
2018-08-09T09:40:50.545Z,5.90
2018-08-09T09:45:53.781Z,6.12
2018-08-09T09:50:57.675Z,7.37
2018-08-09T09:56:01.000Z,9.70
2018-08-09T10:01:09.489Z,8.37
2018-08-09T10:06:12.698Z,7.83
2018-08-09T10:11:16.505Z,10.77
2018-08-09T10:16:19.710Z,7.87
2018-08-09T10:21:22.929Z,9.47
2018-08-09T10:26:26.141Z,11.57
2018-08-09T10:31:29.379Z,7.75
2018-08-09T10:36:32.922Z,14.83
2018-08-09T10:41:36.258Z,10.38
2018-08-09T10:46:39.475Z,10.77
2018-08-09T10:51:42.706Z,10.30
2018-08-09T10:56:45.933Z,11.77
2018-08-09T11:01:49.189Z,12.40
2018-08-09T11:06:52.363Z,15.43
2018-08-09T11:11:55.598Z,17.10
2018-08-09T11:16:58.886Z,21.68
2018-08-09T11:22:02.059Z,23.22
2018-08-09T11:27:05.287Z,17.80
2018-08-09T11:32:08.522Z,19.13
2018-08-09T11:37:11.771Z,17.13
2018-08-09T11:42:15.181Z,16.63
2018-08-09T11:47:18.538Z,18.17
2018-08-09T11:52:21.878Z,18.40
2018-08-09T11:57:25.105Z,19.07
2018-08-09T12:02:28.322Z,20.80
2018-08-09T12:07:31.539Z,19.15
2018-08-09T12:12:34.755Z,19.82
2018-08-09T12:17:38.032Z,17.10
2018-08-09T12:22:41.282Z,20.90
2018-08-09T12:27:44.544Z,21.70
2018-08-09T12:32:47.867Z,19.80
2018-08-09T12:37:51.104Z,21.48
2018-08-09T12:42:54.354Z,23.22
2018-08-09T12:47:57.578Z,22.27
2018-08-09T12:53:01.471Z,21.02
2018-08-09T12:58:04.732Z,22.87
2018-08-09T13:03:08.286Z,24.03
2018-08-09T13:08:11.518Z,22.35
2018-08-09T13:13:14.800Z,20.08
2018-08-09T13:18:18.021Z,21.80
2018-08-09T13:23:21.288Z,20.17
2018-08-09T13:28:24.471Z,19.83
2018-08-09T13:33:27.679Z,18.12
2018-08-09T13:38:30.914Z,17.12
2018-08-09T13:43:34.113Z,15.98
2018-08-09T13:48:37.351Z,8.37
2018-08-09T13:53:40.556Z,8.00
2018-08-09T13:58:43.802Z,11.73
2018-08-09T14:03:47.019Z,8.55
2018-08-09T14:08:50.295Z,11.08
2018-08-09T14:13:53.591Z,12.00
2018-08-09T14:18:56.881Z,12.85
2018-08-09T14:24:00.488Z,12.37
2018-08-09T14:29:03.787Z,12.60
2018-08-09T14:34:07.135Z,16.07
2018-08-09T14:39:11.328Z,11.78
2018-08-09T14:44:14.523Z,11.22
2018-08-09T14:49:17.725Z,11.95
2018-08-09T14:54:20.959Z,13.62
2018-08-09T14:59:24.124Z,12.25
2018-08-09T15:04:27.349Z,12.75
2018-08-09T15:09:30.593Z,12.47
2018-08-09T15:14:33.838Z,12.30
2018-08-09T15:19:37.081Z,14.00
2018-08-09T15:24:40.295Z,10.23
2018-08-09T15:29:43.491Z,7.67
2018-08-09T15:34:46.729Z,10.53
2018-08-09T15:39:49.970Z,9.67
2018-08-09T15:44:53.308Z,7.43
2018-08-09T15:49:56.583Z,12.27
2018-08-09T15:54:59.801Z,11.93
2018-08-09T16:00:03.071Z,12.23
2018-08-09T16:05:06.648Z,15.13
2018-08-09T16:10:13.149Z,6.93
2018-08-09T16:15:17.493Z,8.78
2018-08-09T16:20:20.736Z,11.38
2018-08-09T16:25:23.973Z,9.75
2018-08-09T16:30:27.350Z,10.15
2018-08-09T16:35:30.554Z,7.90
2018-08-09T16:40:33.772Z,7.33
2018-08-09T16:45:36.985Z,9.18
2018-08-09T16:50:40.602Z,9.03
2018-08-09T16:55:43.832Z,7.58
2018-08-09T17:00:47.056Z,10.88
2018-08-09T17:05:50.271Z,8.33
2018-08-09T17:10:53.821Z,9.13
2018-08-09T17:15:57.604Z,8.97
2018-08-09T17:21:00.826Z,10.72
2018-08-09T17:26:04.066Z,8.75
2018-08-09T17:31:07.418Z,12.43
2018-08-09T17:36:10.616Z,8.97
2018-08-09T17:41:13.862Z,8.30
2018-08-09T17:46:17.136Z,7.07
2018-08-09T17:51:20.321Z,9.37
2018-08-09T17:56:23.554Z,6.33
2018-08-09T18:01:26.795Z,5.85
2018-08-09T18:06:30.095Z,6.08
2018-08-09T18:11:33.291Z,5.30
2018-08-09T18:16:37.235Z,4.60
2018-08-09T18:21:41.100Z,4.27
2018-08-09T18:26:44.379Z,4.03
2018-08-09T18:31:47.603Z,3.37
2018-08-09T18:36:50.847Z,4.07
2018-08-09T18:41:54.042Z,4.03
2018-08-09T18:46:57.287Z,5.22
2018-08-09T18:52:00.566Z,3.87
2018-08-09T18:57:05.259Z,4.25
2018-08-09T19:02:08.470Z,4.17
2018-08-09T19:07:11.668Z,3.92
2018-08-09T19:12:14.912Z,4.10
2018-08-09T19:17:18.123Z,6.28
2018-08-09T19:22:21.348Z,11.70
2018-08-09T19:27:24.740Z,6.87
2018-08-09T19:32:27.863Z,8.05
2018-08-09T19:37:31.050Z,5.83
2018-08-09T19:42:34.270Z,5.10
2018-08-09T19:47:37.947Z,6.60
2018-08-09T19:52:41.208Z,4.20
2018-08-09T19:57:45.479Z,4.50
2018-08-09T20:02:49.201Z,3.02
2018-08-09T20:07:52.411Z,3.80
2018-08-09T20:12:55.608Z,3.10
2018-08-09T20:17:58.874Z,2.70
2018-08-09T20:23:02.095Z,3.87
2018-08-09T20:28:05.661Z,2.80
2018-08-09T20:33:08.887Z,5.08
2018-08-09T20:38:12.191Z,3.67
2018-08-09T20:43:15.369Z,5.00
2018-08-09T20:48:18.590Z,4.80
2018-08-09T20:53:21.801Z,6.97
2018-08-09T20:58:25.047Z,6.80
2018-08-09T21:03:28.278Z,8.05
2018-08-09T21:08:31.473Z,7.77
2018-08-09T21:13:34.695Z,6.58
2018-08-09T21:18:37.923Z,6.15
2018-08-09T21:23:41.127Z,5.53
2018-08-09T21:28:44.399Z,4.72
2018-08-09T21:33:47.642Z,3.70
2018-08-09T21:38:50.913Z,5.27
2018-08-09T21:43:54.078Z,5.55
2018-08-09T21:48:57.319Z,6.60
2018-08-09T21:54:00.518Z,7.53
2018-08-09T21:59:03.719Z,7.53
2018-08-09T22:04:06.935Z,7.80
2018-08-09T22:09:15.665Z,8.10
2018-08-09T22:14:24.576Z,7.83
2018-08-09T22:19:33.260Z,9.70
2018-08-09T22:24:36.499Z,8.98
2018-08-09T22:29:39.698Z,8.27
2018-08-09T22:34:43.165Z,7.72
2018-08-09T22:39:46.366Z,7.80
2018-08-09T22:44:49.580Z,8.23
2018-08-09T22:49:52.837Z,7.10
2018-08-09T22:54:56.134Z,5.75
2018-08-09T22:59:59.369Z,5.03
2018-08-09T23:05:02.644Z,4.25
2018-08-09T23:10:06.510Z,4.95
2018-08-09T23:15:10.334Z,5.25
2018-08-09T23:20:13.561Z,3.67
2018-08-09T23:25:16.814Z,4.35
2018-08-09T23:30:20.016Z,5.03
2018-08-09T23:35:23.239Z,5.30
2018-08-09T23:40:26.438Z,7.08
2018-08-09T23:45:29.669Z,8.15
2018-08-09T23:50:32.904Z,8.53
2018-08-09T23:55:36.147Z,8.63
